sensor_id;sensor_type;location;lat;lon;timestamp;pressure;altitude;pressure_sealevel;temperature;humidity
23733;BME280;12047;53.450;-2.286;2023-12-22T00:00:43;100583.50;;;14.51;100.00
23733;BME280;12047;53.450;-2.286;2023-12-22T00:05:48;100577.97;;;14.28;100.00
23733;BME280;12047;53.450;-2.286;2023-12-22T00:10:50;100580.59;;;14.36;100.00
23733;BME280;12047;53.450;-2.286;2023-12-22T00:15:50;100592.97;;;14.61;100.00
23733;BME280;12047;53.450;-2.286;2023-12-22T00:20:51;100605.25;;;14.22;100.00
23733;BME280;12047;53.450;-2.286;2023-12-22T00:25:51;100593.66;;;14.72;100.00
23733;BME280;12047;53.450;-2.286;2023-12-22T00:30:52;100585.97;;;14.93;100.00
23733;BME280;12047;53.450;-2.286;2023-12-22T00:35:53;100594.97;;;14.43;100.00
23733;BME280;12047;53.450;-2.286;2023-12-22T00:40:53;100589.66;;;14.68;100.00
23733;BME280;12047;53.450;-2.286;2023-12-22T00:45:54;100598.00;;;14.48;100.00
23733;BME280;12047;53.450;-2.286;2023-12-22T00:50:56;100603.47;;;14.47;100.00
23733;BME280;12047;53.450;-2.286;2023-12-22T00:55:56;100595.44;;;14.30;100.00
23733;BME280;12047;53.450;-2.286;2023-12-22T01:01:00;100589.38;;;13.96;100.00
23733;BME280;12047;53.450;-2.286;2023-12-22T01:06:01;100588.63;;;14.28;100.00
23733;BME280;12047;53.450;-2.286;2023-12-22T01:11:01;100579.47;;;14.30;100.00
23733;BME280;12047;53.450;-2.286;2023-12-22T01:16:02;100590.38;;;13.95;100.00
23733;BME280;12047;53.450;-2.286;2023-12-22T01:21:02;100571.72;;;13.95;100.00
23733;BME280;12047;53.450;-2.286;2023-12-22T01:26:03;100574.09;;;14.06;100.00
23733;BME280;12047;53.450;-2.286;2023-12-22T01:31:03;100579.78;;;14.36;100.00
23733;BME280;12047;53.450;-2.286;2023-12-22T01:36:05;100583.59;;;14.17;100.00
23733;BME280;12047;53.450;-2.286;2023-12-22T01:41:08;100583.00;;;14.47;100.00
23733;BME280;12047;53.450;-2.286;2023-12-22T01:46:11;100554.78;;;14.20;100.00
23733;BME280;12047;53.450;-2.286;2023-12-22T01:51:12;100557.34;;;14.54;100.00
23733;BME280;12047;53.450;-2.286;2023-12-22T01:56:12;100542.13;;;14.22;100.00
23733;BME280;12047;53.450;-2.286;2023-12-22T02:01:13;100538.78;;;14.37;100.00
23733;BME280;12047;53.450;-2.286;2023-12-22T02:06:16;100548.81;;;14.26;100.00
23733;BME280;12047;53.450;-2.286;2023-12-22T02:11:17;100518.81;;;14.73;100.00
23733;BME280;12047;53.450;-2.286;2023-12-22T02:16:37;100538.84;;;14.45;100.00
23733;BME280;12047;53.450;-2.286;2023-12-22T02:22:08;100526.84;;;14.57;100.00
23733;BME280;12047;53.450;-2.286;2023-12-22T02:32:31;100503.50;;;14.35;100.00
23733;BME280;12047;53.450;-2.286;2023-12-22T02:37:35;100504.81;;;14.71;100.00
23733;BME280;12047;53.450;-2.286;2023-12-22T02:42:38;100508.19;;;14.41;100.00
23733;BME280;12047;53.450;-2.286;2023-12-22T02:47:38;100492.19;;;14.41;100.00
23733;BME280;12047;53.450;-2.286;2023-12-22T02:52:41;100502.66;;;14.67;100.00
23733;BME280;12047;53.450;-2.286;2023-12-22T02:57:42;100505.66;;;14.31;100.00
23733;BME280;12047;53.450;-2.286;2023-12-22T03:02:42;100503.97;;;14.71;100.00
23733;BME280;12047;53.450;-2.286;2023-12-22T03:07:43;100491.84;;;14.44;100.00
23733;BME280;12047;53.450;-2.286;2023-12-22T03:12:43;100499.00;;;14.43;100.00
23733;BME280;12047;53.450;-2.286;2023-12-22T03:17:44;100503.50;;;14.59;100.00
23733;BME280;12047;53.450;-2.286;2023-12-22T03:22:44;100501.59;;;14.92;100.00
23733;BME280;12047;53.450;-2.286;2023-12-22T03:27:44;100492.84;;;14.43;100.00
23733;BME280;12047;53.450;-2.286;2023-12-22T03:32:45;100495.84;;;14.56;100.00
23733;BME280;12047;53.450;-2.286;2023-12-22T03:37:50;100493.16;;;14.64;100.00
23733;BME280;12047;53.450;-2.286;2023-12-22T03:42:50;100464.16;;;14.61;100.00
23733;BME280;12047;53.450;-2.286;2023-12-22T03:47:51;100461.47;;;14.77;100.00
23733;BME280;12047;53.450;-2.286;2023-12-22T03:52:52;100471.13;;;14.78;100.00
23733;BME280;12047;53.450;-2.286;2023-12-22T03:57:56;100470.16;;;14.71;100.00
23733;BME280;12047;53.450;-2.286;2023-12-22T04:02:57;100463.25;;;14.85;100.00
23733;BME280;12047;53.450;-2.286;2023-12-22T04:07:57;100474.38;;;15.05;100.00
23733;BME280;12047;53.450;-2.286;2023-12-22T04:12:59;100477.53;;;14.45;100.00
23733;BME280;12047;53.450;-2.286;2023-12-22T04:17:59;100478.63;;;14.75;100.00
23733;BME280;12047;53.450;-2.286;2023-12-22T04:23:00;100485.91;;;14.89;100.00
23733;BME280;12047;53.450;-2.286;2023-12-22T04:28:00;100502.09;;;14.95;100.00
23733;BME280;12047;53.450;-2.286;2023-12-22T04:33:00;100470.09;;;14.87;100.00
23733;BME280;12047;53.450;-2.286;2023-12-22T04:38:01;100462.31;;;15.17;100.00
23733;BME280;12047;53.450;-2.286;2023-12-22T04:43:01;100468.97;;;14.66;100.00
23733;BME280;12047;53.450;-2.286;2023-12-22T04:48:02;100483.53;;;14.55;100.00
23733;BME280;12047;53.450;-2.286;2023-12-22T04:53:03;100484.81;;;14.75;100.00
23733;BME280;12047;53.450;-2.286;2023-12-22T04:58:03;100488.47;;;14.82;100.00
23733;BME280;12047;53.450;-2.286;2023-12-22T05:03:04;100501.09;;;14.88;100.00
23733;BME280;12047;53.450;-2.286;2023-12-22T05:08:05;100493.75;;;14.98;100.00
23733;BME280;12047;53.450;-2.286;2023-12-22T05:13:05;100491.09;;;14.90;100.00
23733;BME280;12047;53.450;-2.286;2023-12-22T05:18:06;100475.00;;;15.15;100.00
23733;BME280;12047;53.450;-2.286;2023-12-22T05:23:06;100488.50;;;15.13;100.00
23733;BME280;12047;53.450;-2.286;2023-12-22T05:28:06;100485.09;;;14.88;100.00
23733;BME280;12047;53.450;-2.286;2023-12-22T05:33:08;100487.13;;;14.78;100.00
23733;BME280;12047;53.450;-2.286;2023-12-22T05:38:09;100490.59;;;14.87;100.00
23733;BME280;12047;53.450;-2.286;2023-12-22T05:43:09;100488.66;;;14.64;100.00
23733;BME280;12047;53.450;-2.286;2023-12-22T05:48:10;100491.47;;;14.71;100.00
23733;BME280;12047;53.450;-2.286;2023-12-22T05:53:10;100485.31;;;14.79;100.00
23733;BME280;12047;53.450;-2.286;2023-12-22T05:58:12;100473.13;;;14.84;100.00
23733;BME280;12047;53.450;-2.286;2023-12-22T06:03:12;100494.81;;;14.73;100.00
23733;BME280;12047;53.450;-2.286;2023-12-22T06:08:14;100495.47;;;14.67;100.00
23733;BME280;12047;53.450;-2.286;2023-12-22T06:13:17;100486.09;;;14.87;100.00
23733;BME280;12047;53.450;-2.286;2023-12-22T06:18:18;100497.75;;;14.86;100.00
23733;BME280;12047;53.450;-2.286;2023-12-22T06:23:18;100503.31;;;14.77;100.00
23733;BME280;12047;53.450;-2.286;2023-12-22T06:28:19;100506.75;;;14.85;100.00
23733;BME280;12047;53.450;-2.286;2023-12-22T06:33:20;100501.81;;;14.66;100.00
23733;BME280;12047;53.450;-2.286;2023-12-22T06:38:20;100503.09;;;14.86;100.00
23733;BME280;12047;53.450;-2.286;2023-12-22T06:43:21;100503.41;;;15.08;100.00
23733;BME280;12047;53.450;-2.286;2023-12-22T06:48:21;100504.25;;;14.92;100.00
23733;BME280;12047;53.450;-2.286;2023-12-22T06:53:22;100516.28;;;14.88;100.00
23733;BME280;12047;53.450;-2.286;2023-12-22T06:58:25;100513.13;;;14.84;100.00
23733;BME280;12047;53.450;-2.286;2023-12-22T07:03:26;100526.41;;;15.09;100.00
23733;BME280;12047;53.450;-2.286;2023-12-22T07:08:29;100523.28;;;14.89;100.00
23733;BME280;12047;53.450;-2.286;2023-12-22T07:13:30;100533.09;;;14.96;100.00
23733;BME280;12047;53.450;-2.286;2023-12-22T07:18:30;100545.16;;;14.84;100.00
23733;BME280;12047;53.450;-2.286;2023-12-22T07:23:33;100535.94;;;15.03;100.00
23733;BME280;12047;53.450;-2.286;2023-12-22T07:28:44;100537.25;;;15.07;100.00
23733;BME280;12047;53.450;-2.286;2023-12-22T07:33:45;100544.06;;;15.10;100.00
23733;BME280;12047;53.450;-2.286;2023-12-22T07:38:45;100532.69;;;14.52;100.00
23733;BME280;12047;53.450;-2.286;2023-12-22T07:43:46;100556.81;;;14.67;100.00
23733;BME280;12047;53.450;-2.286;2023-12-22T07:48:46;100563.19;;;14.58;100.00
23733;BME280;12047;53.450;-2.286;2023-12-22T07:53:47;100554.16;;;14.75;100.00
23733;BME280;12047;53.450;-2.286;2023-12-22T07:58:49;100560.66;;;14.64;100.00
23733;BME280;12047;53.450;-2.286;2023-12-22T08:03:49;100553.34;;;14.58;100.00
23733;BME280;12047;53.450;-2.286;2023-12-22T08:08:50;100574.47;;;14.60;100.00
23733;BME280;12047;53.450;-2.286;2023-12-22T08:13:50;100575.00;;;14.80;100.00
23733;BME280;12047;53.450;-2.286;2023-12-22T08:18:51;100586.13;;;15.00;100.00
23733;BME280;12047;53.450;-2.286;2023-12-22T08:23:54;100583.66;;;14.74;100.00
23733;BME280;12047;53.450;-2.286;2023-12-22T08:28:55;100575.81;;;14.80;100.00
23733;BME280;12047;53.450;-2.286;2023-12-22T08:33:55;100576.78;;;14.95;100.00
23733;BME280;12047;53.450;-2.286;2023-12-22T08:38:56;100604.00;;;14.75;100.00
23733;BME280;12047;53.450;-2.286;2023-12-22T08:43:57;100598.81;;;14.49;100.00
23733;BME280;12047;53.450;-2.286;2023-12-22T08:48:58;100592.81;;;14.79;100.00
23733;BME280;12047;53.450;-2.286;2023-12-22T08:54:02;100602.34;;;14.57;100.00
23733;BME280;12047;53.450;-2.286;2023-12-22T08:59:06;100605.31;;;14.62;100.00
23733;BME280;12047;53.450;-2.286;2023-12-22T09:04:10;100619.66;;;14.70;100.00
23733;BME280;12047;53.450;-2.286;2023-12-22T09:09:11;100637.16;;;15.05;100.00
23733;BME280;12047;53.450;-2.286;2023-12-22T09:14:13;100636.81;;;15.08;100.00
23733;BME280;12047;53.450;-2.286;2023-12-22T09:19:25;100630.13;;;15.12;100.00
23733;BME280;12047;53.450;-2.286;2023-12-22T09:24:26;100647.50;;;14.83;100.00
23733;BME280;12047;53.450;-2.286;2023-12-22T09:29:31;100651.16;;;14.66;100.00
23733;BME280;12047;53.450;-2.286;2023-12-22T09:34:34;100635.31;;;14.64;100.00
23733;BME280;12047;53.450;-2.286;2023-12-22T09:39:34;100639.16;;;14.54;100.00
23733;BME280;12047;53.450;-2.286;2023-12-22T09:44:36;100660.84;;;14.59;100.00
23733;BME280;12047;53.450;-2.286;2023-12-22T09:49:42;100665.50;;;14.73;100.00
23733;BME280;12047;53.450;-2.286;2023-12-22T09:54:43;100665.34;;;14.58;100.00
23733;BME280;12047;53.450;-2.286;2023-12-22T09:59:48;100656.81;;;14.55;100.00
23733;BME280;12047;53.450;-2.286;2023-12-22T10:04:51;100681.34;;;14.75;100.00
23733;BME280;12047;53.450;-2.286;2023-12-22T10:09:54;100686.81;;;14.65;100.00
23733;BME280;12047;53.450;-2.286;2023-12-22T10:14:57;100701.97;;;14.64;100.00
23733;BME280;12047;53.450;-2.286;2023-12-22T10:20:03;100693.16;;;14.56;100.00
23733;BME280;12047;53.450;-2.286;2023-12-22T10:25:05;100691.50;;;14.55;100.00
23733;BME280;12047;53.450;-2.286;2023-12-22T10:30:07;100686.66;;;14.58;100.00
23733;BME280;12047;53.450;-2.286;2023-12-22T10:35:10;100692.50;;;14.70;100.00
23733;BME280;12047;53.450;-2.286;2023-12-22T10:40:13;100693.31;;;14.62;100.00
23733;BME280;12047;53.450;-2.286;2023-12-22T10:45:14;100698.81;;;14.53;100.00
23733;BME280;12047;53.450;-2.286;2023-12-22T10:50:19;100680.81;;;14.55;100.00
23733;BME280;12047;53.450;-2.286;2023-12-22T10:55:20;100707.47;;;14.63;100.00
23733;BME280;12047;53.450;-2.286;2023-12-22T11:00:22;100681.34;;;14.58;100.00
23733;BME280;12047;53.450;-2.286;2023-12-22T11:05:24;100696.84;;;14.71;100.00
23733;BME280;12047;53.450;-2.286;2023-12-22T11:10:30;100698.84;;;14.77;100.00
23733;BME280;12047;53.450;-2.286;2023-12-22T11:15:34;100691.03;;;14.84;100.00
23733;BME280;12047;53.450;-2.286;2023-12-22T11:20:37;100691.69;;;14.94;100.00
23733;BME280;12047;53.450;-2.286;2023-12-22T11:25:38;100707.19;;;14.90;100.00
23733;BME280;12047;53.450;-2.286;2023-12-22T11:30:43;100706.81;;;14.53;100.00
23733;BME280;12047;53.450;-2.286;2023-12-22T11:35:46;100689.81;;;14.54;100.00
23733;BME280;12047;53.450;-2.286;2023-12-22T11:40:49;100699.81;;;14.52;100.00
23733;BME280;12047;53.450;-2.286;2023-12-22T11:45:52;100696.63;;;14.48;100.00
23733;BME280;12047;53.450;-2.286;2023-12-22T11:50:54;100700.16;;;14.65;100.00
23733;BME280;12047;53.450;-2.286;2023-12-22T11:56:04;100715.13;;;14.50;100.00
23733;BME280;12047;53.450;-2.286;2023-12-22T12:01:14;100714.06;;;14.35;100.00
23733;BME280;12047;53.450;-2.286;2023-12-22T12:06:35;100699.16;;;14.66;100.00
23733;BME280;12047;53.450;-2.286;2023-12-22T12:17:06;100697.31;;;14.67;100.00
23733;BME280;12047;53.450;-2.286;2023-12-22T12:22:11;100692.47;;;14.46;100.00
23733;BME280;12047;53.450;-2.286;2023-12-22T12:27:21;100703.16;;;14.70;100.00
23733;BME280;12047;53.450;-2.286;2023-12-22T12:32:25;100694.00;;;14.89;100.00
23733;BME280;12047;53.450;-2.286;2023-12-22T12:37:26;100695.50;;;14.75;100.00
23733;BME280;12047;53.450;-2.286;2023-12-22T12:42:29;100681.69;;;14.80;100.00
23733;BME280;12047;53.450;-2.286;2023-12-22T12:47:31;100702.50;;;14.92;100.00
23733;BME280;12047;53.450;-2.286;2023-12-22T12:52:31;100714.84;;;14.85;100.00
23733;BME280;12047;53.450;-2.286;2023-12-22T12:57:32;100693.19;;;15.05;100.00
23733;BME280;12047;53.450;-2.286;2023-12-22T13:02:35;100707.88;;;14.84;100.00
23733;BME280;12047;53.450;-2.286;2023-12-22T13:07:36;100691.84;;;14.84;100.00
23733;BME280;12047;53.450;-2.286;2023-12-22T13:12:38;100693.16;;;14.88;100.00
23733;BME280;12047;53.450;-2.286;2023-12-22T13:17:38;100694.84;;;15.14;100.00
23733;BME280;12047;53.450;-2.286;2023-12-22T13:22:44;100686.84;;;14.97;100.00
23733;BME280;12047;53.450;-2.286;2023-12-22T13:32:47;100699.81;;;14.68;100.00
23733;BME280;12047;53.450;-2.286;2023-12-22T13:37:53;100706.34;;;14.74;100.00
23733;BME280;12047;53.450;-2.286;2023-12-22T13:42:55;100692.00;;;14.75;100.00
23733;BME280;12047;53.450;-2.286;2023-12-22T13:48:00;100697.53;;;14.81;100.00
23733;BME280;12047;53.450;-2.286;2023-12-22T13:53:08;100686.16;;;14.71;100.00
23733;BME280;12047;53.450;-2.286;2023-12-22T13:58:09;100675.50;;;14.87;100.00
23733;BME280;12047;53.450;-2.286;2023-12-22T14:03:12;100684.94;;;14.41;100.00
23733;BME280;12047;53.450;-2.286;2023-12-22T14:08:12;100682.50;;;14.72;100.00
23733;BME280;12047;53.450;-2.286;2023-12-22T14:13:13;100695.66;;;14.66;100.00
23733;BME280;12047;53.450;-2.286;2023-12-22T14:18:14;100693.44;;;14.45;100.00
23733;BME280;12047;53.450;-2.286;2023-12-22T14:23:14;100699.25;;;14.40;100.00
23733;BME280;12047;53.450;-2.286;2023-12-22T14:28:18;100704.97;;;14.45;100.00
23733;BME280;12047;53.450;-2.286;2023-12-22T14:33:19;100680.63;;;14.48;100.00
23733;BME280;12047;53.450;-2.286;2023-12-22T14:38:19;100710.84;;;14.73;100.00
23733;BME280;12047;53.450;-2.286;2023-12-22T14:43:20;100723.00;;;14.76;100.00
23733;BME280;12047;53.450;-2.286;2023-12-22T14:48:20;100733.00;;;14.74;100.00
23733;BME280;12047;53.450;-2.286;2023-12-22T14:53:21;100742.03;;;14.89;100.00
23733;BME280;12047;53.450;-2.286;2023-12-22T14:58:21;100727.34;;;14.77;100.00
23733;BME280;12047;53.450;-2.286;2023-12-22T15:03:22;100731.50;;;14.71;100.00
23733;BME280;12047;53.450;-2.286;2023-12-22T15:08:22;100743.78;;;14.48;100.00
23733;BME280;12047;53.450;-2.286;2023-12-22T15:13:23;100775.97;;;14.62;100.00
23733;BME280;12047;53.450;-2.286;2023-12-22T15:18:23;100802.69;;;14.71;100.00
23733;BME280;12047;53.450;-2.286;2023-12-22T15:23:24;100803.06;;;14.84;100.00
23733;BME280;12047;53.450;-2.286;2023-12-22T15:28:24;100815.94;;;15.05;100.00
23733;BME280;12047;53.450;-2.286;2023-12-22T15:33:24;100826.25;;;15.00;100.00
23733;BME280;12047;53.450;-2.286;2023-12-22T15:38:25;100836.94;;;15.00;100.00
23733;BME280;12047;53.450;-2.286;2023-12-22T15:43:25;100822.75;;;14.83;100.00
23733;BME280;12047;53.450;-2.286;2023-12-22T15:48:26;100822.41;;;14.94;100.00
23733;BME280;12047;53.450;-2.286;2023-12-22T15:53:27;100822.22;;;14.87;100.00
23733;BME280;12047;53.450;-2.286;2023-12-22T15:58:28;100831.84;;;14.72;100.00
23733;BME280;12047;53.450;-2.286;2023-12-22T16:03:28;100848.13;;;15.03;100.00
23733;BME280;12047;53.450;-2.286;2023-12-22T16:08:29;100851.16;;;15.24;100.00
23733;BME280;12047;53.450;-2.286;2023-12-22T16:13:30;100861.63;;;15.02;100.00
23733;BME280;12047;53.450;-2.286;2023-12-22T16:18:31;100857.69;;;15.30;100.00
23733;BME280;12047;53.450;-2.286;2023-12-22T16:23:31;100865.66;;;15.06;100.00
23733;BME280;12047;53.450;-2.286;2023-12-22T16:28:31;100871.38;;;15.43;100.00
23733;BME280;12047;53.450;-2.286;2023-12-22T16:33:32;100876.00;;;15.09;100.00
23733;BME280;12047;53.450;-2.286;2023-12-22T16:38:32;100890.03;;;15.27;100.00
23733;BME280;12047;53.450;-2.286;2023-12-22T16:43:36;100894.25;;;14.87;100.00
23733;BME280;12047;53.450;-2.286;2023-12-22T16:48:37;100893.38;;;15.29;100.00
23733;BME280;12047;53.450;-2.286;2023-12-22T16:53:37;100917.94;;;14.82;100.00
23733;BME280;12047;53.450;-2.286;2023-12-22T16:58:38;100917.72;;;15.18;100.00
23733;BME280;12047;53.450;-2.286;2023-12-22T17:03:38;100926.34;;;15.04;100.00
23733;BME280;12047;53.450;-2.286;2023-12-22T17:08:40;100915.41;;;15.31;100.00
23733;BME280;12047;53.450;-2.286;2023-12-22T17:13:40;100925.06;;;15.24;100.00
23733;BME280;12047;53.450;-2.286;2023-12-22T17:18:41;100940.91;;;15.17;100.00
23733;BME280;12047;53.450;-2.286;2023-12-22T17:23:44;100939.53;;;15.05;100.00
23733;BME280;12047;53.450;-2.286;2023-12-22T17:28:45;100947.13;;;15.42;100.00
23733;BME280;12047;53.450;-2.286;2023-12-22T17:33:46;100951.00;;;15.48;100.00
23733;BME280;12047;53.450;-2.286;2023-12-22T17:38:47;100948.69;;;15.11;100.00
23733;BME280;12047;53.450;-2.286;2023-12-22T17:43:47;100945.56;;;15.07;100.00
23733;BME280;12047;53.450;-2.286;2023-12-22T17:48:48;100939.59;;;14.79;100.00
23733;BME280;12047;53.450;-2.286;2023-12-22T17:53:48;100937.22;;;15.18;100.00
23733;BME280;12047;53.450;-2.286;2023-12-22T17:58:48;100947.81;;;14.94;100.00
23733;BME280;12047;53.450;-2.286;2023-12-22T18:03:49;100948.97;;;14.91;100.00
23733;BME280;12047;53.450;-2.286;2023-12-22T18:08:53;100935.72;;;15.08;100.00
23733;BME280;12047;53.450;-2.286;2023-12-22T18:13:54;100937.50;;;14.65;100.00
23733;BME280;12047;53.450;-2.286;2023-12-22T18:18:55;100938.03;;;14.69;100.00
23733;BME280;12047;53.450;-2.286;2023-12-22T18:23:55;100921.03;;;14.70;100.00
23733;BME280;12047;53.450;-2.286;2023-12-22T18:28:56;100913.50;;;14.65;100.00
23733;BME280;12047;53.450;-2.286;2023-12-22T18:33:56;100909.59;;;14.51;100.00
23733;BME280;12047;53.450;-2.286;2023-12-22T18:38:57;100914.13;;;14.93;100.00
23733;BME280;12047;53.450;-2.286;2023-12-22T18:43:58;100897.97;;;14.60;100.00
23733;BME280;12047;53.450;-2.286;2023-12-22T18:48:59;100913.00;;;15.04;100.00
23733;BME280;12047;53.450;-2.286;2023-12-22T18:53:59;100911.25;;;14.78;100.00
23733;BME280;12047;53.450;-2.286;2023-12-22T18:59:01;100931.34;;;14.64;100.00
23733;BME280;12047;53.450;-2.286;2023-12-22T19:04:01;100928.66;;;14.64;100.00
23733;BME280;12047;53.450;-2.286;2023-12-22T19:09:02;100920.50;;;14.66;100.00
23733;BME280;12047;53.450;-2.286;2023-12-22T19:14:03;100920.97;;;14.95;100.00
23733;BME280;12047;53.450;-2.286;2023-12-22T19:19:04;100917.38;;;14.71;100.00
23733;BME280;12047;53.450;-2.286;2023-12-22T19:24:04;100943.84;;;14.98;100.00
23733;BME280;12047;53.450;-2.286;2023-12-22T19:29:05;100957.13;;;14.90;100.00
23733;BME280;12047;53.450;-2.286;2023-12-22T19:34:05;100944.91;;;14.45;100.00
23733;BME280;12047;53.450;-2.286;2023-12-22T19:39:06;100947.13;;;14.84;100.00
23733;BME280;12047;53.450;-2.286;2023-12-22T19:44:08;100950.63;;;14.92;100.00
23733;BME280;12047;53.450;-2.286;2023-12-22T19:49:08;100943.53;;;14.67;100.00
23733;BME280;12047;53.450;-2.286;2023-12-22T19:54:09;100952.56;;;14.74;100.00
23733;BME280;12047;53.450;-2.286;2023-12-22T19:59:09;100960.47;;;14.92;100.00
23733;BME280;12047;53.450;-2.286;2023-12-22T20:04:10;100937.19;;;14.68;100.00
23733;BME280;12047;53.450;-2.286;2023-12-22T20:09:13;100950.22;;;14.71;100.00
23733;BME280;12047;53.450;-2.286;2023-12-22T20:14:13;100947.28;;;14.90;100.00
23733;BME280;12047;53.450;-2.286;2023-12-22T20:19:14;100958.22;;;14.71;100.00
23733;BME280;12047;53.450;-2.286;2023-12-22T20:24:14;100956.84;;;14.59;100.00
23733;BME280;12047;53.450;-2.286;2023-12-22T20:29:15;100957.53;;;14.69;100.00
23733;BME280;12047;53.450;-2.286;2023-12-22T20:34:15;100956.13;;;14.83;100.00
23733;BME280;12047;53.450;-2.286;2023-12-22T20:39:16;100947.19;;;15.00;100.00
23733;BME280;12047;53.450;-2.286;2023-12-22T20:44:16;100964.84;;;14.67;100.00
23733;BME280;12047;53.450;-2.286;2023-12-22T20:49:19;100961.81;;;14.62;100.00
23733;BME280;12047;53.450;-2.286;2023-12-22T20:54:21;100960.19;;;14.69;100.00
23733;BME280;12047;53.450;-2.286;2023-12-22T20:59:22;100974.13;;;14.89;100.00
23733;BME280;12047;53.450;-2.286;2023-12-22T21:04:24;100983.72;;;14.74;100.00
23733;BME280;12047;53.450;-2.286;2023-12-22T21:09:24;100972.84;;;14.59;100.00
23733;BME280;12047;53.450;-2.286;2023-12-22T21:14:25;100984.28;;;15.19;100.00
23733;BME280;12047;53.450;-2.286;2023-12-22T21:19:25;100973.66;;;14.93;100.00
23733;BME280;12047;53.450;-2.286;2023-12-22T21:24:26;100973.03;;;15.00;100.00
23733;BME280;12047;53.450;-2.286;2023-12-22T21:29:26;100959.38;;;15.03;100.00
23733;BME280;12047;53.450;-2.286;2023-12-22T21:34:26;100953.56;;;14.73;100.00
23733;BME280;12047;53.450;-2.286;2023-12-22T21:39:27;100955.88;;;15.02;100.00
23733;BME280;12047;53.450;-2.286;2023-12-22T21:44:27;100948.50;;;14.96;100.00
23733;BME280;12047;53.450;-2.286;2023-12-22T21:49:28;100979.31;;;14.90;100.00
23733;BME280;12047;53.450;-2.286;2023-12-22T21:54:28;100956.50;;;14.96;100.00
23733;BME280;12047;53.450;-2.286;2023-12-22T21:59:29;100953.06;;;14.44;100.00
23733;BME280;12047;53.450;-2.286;2023-12-22T22:04:29;100963.84;;;14.68;100.00
23733;BME280;12047;53.450;-2.286;2023-12-22T22:09:30;100950.78;;;14.83;100.00
23733;BME280;12047;53.450;-2.286;2023-12-22T22:14:30;100927.63;;;14.91;100.00
23733;BME280;12047;53.450;-2.286;2023-12-22T22:19:31;100931.84;;;14.68;100.00
23733;BME280;12047;53.450;-2.286;2023-12-22T22:24:31;100945.63;;;14.89;100.00
23733;BME280;12047;53.450;-2.286;2023-12-22T22:29:32;100945.91;;;14.78;100.00
23733;BME280;12047;53.450;-2.286;2023-12-22T22:34:32;100928.50;;;14.66;100.00
23733;BME280;12047;53.450;-2.286;2023-12-22T22:39:33;100924.97;;;14.32;100.00
23733;BME280;12047;53.450;-2.286;2023-12-22T22:44:39;100923.03;;;14.68;100.00
23733;BME280;12047;53.450;-2.286;2023-12-22T22:49:43;100920.13;;;14.53;100.00
23733;BME280;12047;53.450;-2.286;2023-12-22T22:54:44;100920.91;;;14.45;100.00
23733;BME280;12047;53.450;-2.286;2023-12-22T22:59:44;100911.38;;;14.43;100.00
23733;BME280;12047;53.450;-2.286;2023-12-22T23:04:45;100900.00;;;14.67;100.00
23733;BME280;12047;53.450;-2.286;2023-12-22T23:09:45;100890.09;;;14.51;100.00
23733;BME280;12047;53.450;-2.286;2023-12-22T23:14:46;100868.84;;;14.33;100.00
23733;BME280;12047;53.450;-2.286;2023-12-22T23:19:46;100863.66;;;14.57;100.00
23733;BME280;12047;53.450;-2.286;2023-12-22T23:24:47;100844.63;;;14.52;100.00
23733;BME280;12047;53.450;-2.286;2023-12-22T23:29:47;100838.28;;;14.53;100.00
23733;BME280;12047;53.450;-2.286;2023-12-22T23:34:48;100850.66;;;14.62;100.00
23733;BME280;12047;53.450;-2.286;2023-12-22T23:39:48;100850.34;;;14.40;100.00
23733;BME280;12047;53.450;-2.286;2023-12-22T23:44:49;100833.22;;;14.76;100.00
23733;BME280;12047;53.450;-2.286;2023-12-22T23:49:50;100853.66;;;14.59;100.00
23733;BME280;12047;53.450;-2.286;2023-12-22T23:54:50;100872.81;;;14.63;100.00
23733;BME280;12047;53.450;-2.286;2023-12-22T23:59:51;100872.03;;;14.71;100.00
